createdAt,value
2017-07-24T00:00:51.246Z,33.5
2017-07-24T00:01:52.964Z,33.6
2017-07-24T00:02:52.807Z,33.5
2017-07-24T00:03:49.719Z,33.6
2017-07-24T00:04:52.913Z,33.6
2017-07-24T00:05:49.922Z,33.6
2017-07-24T00:06:51.820Z,33.6
2017-07-24T00:07:53.095Z,33.6
2017-07-24T00:08:51.706Z,33.6
2017-07-24T00:09:49.866Z,33.6
2017-07-24T00:10:50.122Z,33.6
2017-07-24T00:11:53.837Z,33.6
2017-07-24T00:12:50.089Z,33.6
2017-07-24T00:13:50.281Z,33.6
2017-07-24T00:14:52.061Z,33.5
2017-07-24T00:15:50.414Z,33.6
2017-07-24T00:16:52.383Z,33.6
2017-07-24T00:17:50.553Z,33.5
2017-07-24T00:18:50.338Z,33.6
2017-07-24T00:19:50.620Z,33.6
2017-07-24T00:20:50.668Z,33.6
2017-07-24T00:21:52.699Z,33.6
2017-07-24T00:22:50.784Z,33.5
2017-07-24T00:23:54.353Z,33.6
2017-07-24T00:24:50.670Z,33.5
2017-07-24T00:25:52.844Z,33.6
2017-07-24T00:26:52.689Z,33.6
2017-07-24T00:27:54.183Z,33.5
2017-07-24T00:28:50.960Z,33.6
2017-07-24T00:29:51.255Z,33.6
2017-07-24T00:30:54.350Z,33.6
2017-07-24T00:31:54.406Z,33.6
2017-07-24T00:32:51.116Z,33.6
2017-07-24T00:33:53.303Z,33.6
2017-07-24T00:34:54.736Z,33.6
2017-07-24T00:35:53.620Z,33.6
2017-07-24T00:36:51.470Z,33.6
2017-07-24T00:37:53.233Z,33.6
2017-07-24T00:38:53.510Z,33.6
2017-07-24T00:39:51.428Z,33.6
2017-07-24T00:40:53.316Z,33.6
2017-07-24T00:41:51.751Z,33.6
2017-07-24T00:42:51.727Z,33.6
2017-07-24T00:44:50.256Z,33.5
2017-07-24T00:45:46.915Z,33.6
2017-07-24T00:46:50.298Z,33.6
2017-07-24T00:47:47.470Z,33.6
2017-07-24T00:48:47.073Z,33.6
2017-07-24T00:49:49.259Z,33.6
2017-07-24T00:50:47.416Z,33.6
2017-07-24T00:51:47.513Z,33.6
2017-07-24T00:52:49.537Z,33.6
2017-07-24T00:53:47.726Z,33.6
2017-07-24T00:54:47.730Z,33.6
2017-07-24T00:55:51.135Z,33.6
2017-07-24T00:56:51.227Z,33.6
2017-07-24T00:57:51.287Z,33.6
2017-07-24T00:58:47.865Z,33.6
2017-07-24T00:59:48.173Z,33.6
2017-07-24T01:00:51.493Z,33.6
2017-07-24T01:01:50.185Z,33.6
2017-07-24T01:02:48.264Z,33.6
2017-07-24T01:03:48.127Z,33.6
2017-07-24T01:04:50.050Z,33.6
2017-07-24T01:05:50.615Z,33.6
2017-07-24T01:06:50.352Z,33.6
2017-07-24T01:07:48.339Z,33.6
2017-07-24T01:08:48.585Z,33.6
2017-07-24T01:09:48.598Z,33.6
2017-07-24T01:10:48.399Z,33.6
2017-07-24T01:11:51.993Z,33.6
2017-07-24T01:12:50.631Z,33.6
2017-07-24T01:13:48.592Z,33.6
2017-07-24T01:14:48.631Z,33.6
2017-07-24T01:15:48.804Z,33.6
2017-07-24T01:16:51.958Z,33.6
2017-07-24T01:17:50.928Z,33.6
2017-07-24T01:18:52.103Z,33.6
2017-07-24T01:19:52.372Z,33.6
2017-07-24T01:20:50.733Z,33.6
2017-07-24T01:21:51.001Z,33.6
2017-07-24T01:22:48.974Z,33.6
2017-07-24T01:23:49.551Z,33.6
2017-07-24T01:24:51.274Z,33.6
2017-07-24T01:25:51.273Z,33.6
2017-07-24T01:26:49.230Z,33.6
2017-07-24T01:27:49.498Z,33.6
2017-07-24T01:28:52.906Z,33.6
2017-07-24T01:29:53.263Z,33.6
2017-07-24T01:30:51.431Z,33.6
2017-07-24T01:31:49.570Z,33.6
2017-07-24T01:32:53.178Z,33.6
2017-07-24T01:33:49.723Z,33.6
2017-07-24T01:34:51.955Z,33.6
2017-07-24T01:35:50.113Z,33.6
2017-07-24T01:36:51.770Z,33.6
2017-07-24T01:37:53.231Z,33.6
2017-07-24T01:38:53.475Z,33.6
2017-07-24T01:39:53.543Z,33.6
2017-07-24T01:40:52.013Z,33.6
2017-07-24T01:41:50.635Z,33.6
2017-07-24T01:42:52.314Z,33.6
2017-07-24T01:43:50.281Z,33.6
2017-07-24T01:44:50.305Z,33.6
2017-07-24T01:45:50.597Z,33.6
2017-07-24T01:46:52.549Z,33.6
2017-07-24T01:47:52.807Z,33.6
2017-07-24T01:48:50.498Z,33.6
2017-07-24T01:49:54.110Z,33.6
2017-07-24T01:50:54.129Z,33.6
2017-07-24T01:51:50.673Z,33.6
2017-07-24T01:52:54.104Z,33.6
2017-07-24T01:53:51.219Z,33.6
2017-07-24T01:54:54.391Z,33.6
2017-07-24T01:55:54.498Z,33.6
2017-07-24T01:56:54.986Z,33.6
2017-07-24T01:57:54.144Z,33.6
2017-07-24T01:58:55.325Z,33.6
2017-07-24T01:59:53.421Z,33.6
2017-07-24T02:00:51.448Z,33.6
2017-07-24T02:01:55.477Z,33.6
2017-07-24T02:02:51.160Z,33.6
2017-07-24T02:03:53.360Z,33.6
2017-07-24T02:04:53.514Z,33.6
2017-07-24T02:05:53.662Z,33.6
2017-07-24T02:06:51.438Z,33.6
2017-07-24T02:07:51.573Z,33.6
2017-07-24T02:08:52.074Z,33.6
2017-07-24T02:09:51.731Z,33.6
2017-07-24T02:10:53.916Z,33.6
2017-07-24T02:11:52.358Z,33.6
2017-07-24T02:12:51.813Z,33.6
2017-07-24T02:13:53.709Z,33.6
2017-07-24T02:14:52.249Z,33.6
2017-07-24T02:15:52.104Z,33.6
2017-07-24T02:16:51.947Z,33.6
2017-07-24T02:17:54.126Z,33.6
2017-07-24T02:18:55.530Z,33.6
2017-07-24T02:19:54.145Z,33.6
2017-07-24T02:20:53.145Z,33.6
2017-07-24T02:21:52.199Z,33.6
2017-07-24T02:22:52.198Z,33.6
2017-07-24T02:23:56.061Z,33.6
2017-07-24T02:24:55.921Z,33.6
2017-07-24T02:25:52.415Z,33.6
2017-07-24T02:26:53.333Z,33.6
2017-07-24T02:27:52.805Z,33.6
2017-07-24T02:28:54.675Z,33.6
2017-07-24T02:29:53.079Z,33.6
2017-07-24T02:30:53.526Z,33.6
2017-07-24T02:31:52.733Z,33.6
2017-07-24T02:32:53.025Z,33.6
2017-07-24T02:33:54.644Z,33.6
2017-07-24T02:34:57.144Z,33.6
2017-07-24T02:35:55.330Z,33.6
2017-07-24T02:36:53.242Z,33.6
2017-07-24T02:37:53.107Z,33.6
2017-07-24T02:38:53.118Z,33.6
2017-07-24T02:39:55.279Z,33.6
2017-07-24T02:40:56.485Z,33.6
2017-07-24T02:41:56.991Z,33.6
2017-07-24T02:42:56.598Z,33.6
2017-07-24T02:43:53.520Z,33.7
2017-07-24T02:44:53.683Z,33.7
2017-07-24T02:45:53.691Z,33.6
2017-07-24T02:46:53.731Z,33.6
2017-07-24T02:47:56.000Z,33.6
2017-07-24T02:48:53.804Z,33.6
2017-07-24T02:49:57.205Z,33.6
2017-07-24T02:50:57.199Z,33.6
2017-07-24T02:51:55.868Z,33.6
2017-07-24T02:52:53.974Z,33.6
2017-07-24T02:53:54.279Z,33.6
2017-07-24T02:54:53.962Z,33.6
2017-07-24T02:55:57.272Z,33.6
2017-07-24T02:56:57.585Z,33.6
2017-07-24T02:57:57.421Z,33.7
2017-07-24T02:58:56.266Z,33.6
2017-07-24T02:59:57.993Z,33.6
2017-07-24T03:00:57.820Z,33.7
2017-07-24T03:01:56.443Z,33.7
2017-07-24T03:02:56.548Z,33.6
2017-07-24T03:03:54.418Z,33.7
2017-07-24T03:04:54.709Z,33.7
2017-07-24T03:05:54.805Z,33.7
2017-07-24T03:06:56.388Z,33.7
2017-07-24T03:07:56.412Z,33.7
2017-07-24T03:08:54.724Z,33.7
2017-07-24T03:09:58.100Z,33.7
2017-07-24T03:10:54.821Z,33.7
2017-07-24T03:11:57.078Z,33.7
2017-07-24T03:12:54.897Z,33.7
2017-07-24T03:13:58.051Z,33.7
2017-07-24T03:14:54.742Z,33.6
2017-07-24T03:15:58.319Z,33.7
2017-07-24T03:16:54.963Z,33.7
2017-07-24T03:17:55.093Z,33.6
2017-07-24T03:18:54.837Z,33.7
2017-07-24T03:19:54.930Z,33.7
2017-07-24T03:20:55.013Z,33.6
2017-07-24T03:21:57.200Z,33.6
2017-07-24T03:22:55.855Z,33.7
2017-07-24T03:23:57.362Z,33.6
2017-07-24T03:24:57.336Z,33.6
2017-07-24T03:25:55.272Z,33.7
2017-07-24T03:26:58.791Z,33.7
2017-07-24T03:27:57.171Z,33.7
2017-07-24T03:28:55.313Z,33.7
2017-07-24T03:29:55.568Z,33.7
2017-07-24T03:30:55.524Z,33.7
2017-07-24T03:31:55.558Z,33.7
2017-07-24T03:32:55.393Z,33.7
2017-07-24T03:33:58.775Z,33.7
2017-07-24T03:34:57.611Z,33.7
2017-07-24T03:35:59.369Z,33.7
2017-07-24T03:36:57.560Z,33.7
2017-07-24T03:37:57.522Z,33.7
2017-07-24T03:39:01.341Z,33.7
2017-07-24T03:39:56.019Z,33.7
2017-07-24T03:40:56.036Z,33.7
2017-07-24T03:41:56.200Z,33.7
2017-07-24T03:42:55.957Z,33.7
2017-07-24T03:43:58.126Z,33.7
2017-07-24T03:44:56.081Z,33.7
2017-07-24T03:45:56.090Z,33.7
2017-07-24T03:46:56.347Z,33.7
2017-07-24T03:47:58.389Z,33.7
2017-07-24T03:48:58.146Z,33.7
2017-07-24T03:49:56.333Z,33.7
2017-07-24T03:50:58.307Z,33.7
2017-07-24T03:51:56.428Z,33.7
2017-07-24T03:52:58.595Z,33.7
2017-07-24T03:53:58.920Z,33.7
2017-07-24T03:54:58.482Z,33.7
2017-07-24T03:55:58.312Z,33.7
2017-07-24T03:56:56.707Z,33.7
2017-07-24T03:57:58.923Z,33.7
2017-07-24T03:59:00.165Z,33.7
2017-07-24T03:59:57.404Z,33.7
2017-07-24T04:01:00.278Z,33.7
2017-07-24T04:01:59.096Z,33.7
2017-07-24T04:02:57.181Z,33.7
2017-07-24T04:03:59.155Z,33.7
2017-07-24T04:04:59.028Z,33.7
2017-07-24T04:05:59.331Z,33.7
2017-07-24T04:06:57.393Z,33.7
2017-07-24T04:08:00.810Z,33.7
2017-07-24T04:08:57.504Z,33.7
2017-07-24T04:09:57.555Z,33.7
2017-07-24T04:10:57.622Z,33.7
2017-07-24T04:11:59.605Z,33.7
2017-07-24T04:13:00.856Z,33.7
2017-07-24T04:13:57.787Z,33.7
2017-07-24T04:14:57.838Z,33.7
2017-07-24T04:15:59.608Z,33.7
2017-07-24T04:16:57.791Z,33.7
2017-07-24T04:17:58.006Z,33.7
2017-07-24T04:19:01.414Z,33.7
2017-07-24T04:20:01.269Z,33.7
2017-07-24T04:20:58.044Z,33.7
2017-07-24T04:22:01.408Z,33.7
2017-07-24T04:22:58.138Z,33.7
2017-07-24T04:24:01.422Z,33.7
2017-07-24T04:24:58.130Z,33.8
2017-07-24T04:26:00.350Z,33.9
2017-07-24T04:26:58.482Z,33.9
2017-07-24T04:28:00.268Z,34
2017-07-24T04:28:58.958Z,34.2
2017-07-24T04:29:58.727Z,34.3
2017-07-24T04:30:58.578Z,34.4
2017-07-24T04:32:00.593Z,34.5
2017-07-24T04:32:58.691Z,34.6
2017-07-24T04:33:58.794Z,34.6
2017-07-24T04:35:01.013Z,34.7
2017-07-24T04:35:59.059Z,34.7
2017-07-24T04:37:02.260Z,34.5
2017-07-24T04:37:59.022Z,34.2
2017-07-24T04:39:00.969Z,34.4
2017-07-24T04:40:03.439Z,34.5
2017-07-24T04:40:59.701Z,34.5
2017-07-24T04:41:59.209Z,34.5
2017-07-24T04:42:59.458Z,34.2
2017-07-24T04:44:01.246Z,34.5
2017-07-24T04:45:01.568Z,34.6
2017-07-24T04:46:01.576Z,34.8
2017-07-24T04:47:03.071Z,35.1
2017-07-24T04:48:03.149Z,34.9
2017-07-24T04:49:03.232Z,35.2
2017-07-24T04:50:01.697Z,35.4
2017-07-24T04:51:00.032Z,35.6
2017-07-24T04:52:02.062Z,35.6
2017-07-24T04:53:03.223Z,35.7
2017-07-24T04:54:02.122Z,35.3
2017-07-24T04:55:03.564Z,35.3
2017-07-24T04:56:02.261Z,35.6
2017-07-24T04:57:03.929Z,35.5
2017-07-24T04:58:02.113Z,36
2017-07-24T04:59:03.783Z,36.3
2017-07-24T05:00:03.574Z,36.7
2017-07-24T05:01:03.888Z,37
2017-07-24T05:02:00.354Z,37.3
2017-07-24T05:03:00.595Z,37.7
2017-07-24T05:04:03.822Z,38
2017-07-24T05:05:02.602Z,37.8
2017-07-24T05:06:00.567Z,37.9
2017-07-24T05:07:00.774Z,37.8
2017-07-24T05:08:02.788Z,37.4
2017-07-24T05:09:02.957Z,37.5
2017-07-24T05:10:04.144Z,38
2017-07-24T05:11:04.133Z,37.9
2017-07-24T05:12:01.058Z,38.2
2017-07-24T05:13:00.981Z,38.5
2017-07-24T05:14:04.391Z,38.9
2017-07-24T05:15:01.417Z,39
2017-07-24T05:16:03.070Z,39.3
2017-07-24T05:17:01.279Z,39.4
2017-07-24T05:18:01.236Z,39.7
2017-07-24T05:19:01.339Z,39.9
2017-07-24T05:20:01.580Z,40
2017-07-24T05:21:01.841Z,40.3
2017-07-24T05:22:05.905Z,40.5
2017-07-24T05:23:09.367Z,40.7
2017-07-24T05:24:05.699Z,40.9
2017-07-24T05:25:01.508Z,41.1
2017-07-24T05:26:01.727Z,41.2
2017-07-24T05:27:03.745Z,41.3
2017-07-24T05:28:03.546Z,41.6
2017-07-24T05:29:05.243Z,41.9
2017-07-24T05:30:05.282Z,41.9
2017-07-24T05:31:03.747Z,42.2
2017-07-24T05:32:02.049Z,42.3
2017-07-24T05:33:01.878Z,42.4
2017-07-24T05:34:04.067Z,42.7
2017-07-24T05:35:05.313Z,42.8
2017-07-24T05:36:02.004Z,42.9
2017-07-24T05:37:02.082Z,42.9
2017-07-24T05:38:02.336Z,43.1
2017-07-24T05:39:05.503Z,43.1
2017-07-24T05:40:04.143Z,43.2
2017-07-24T05:41:02.374Z,43.2
2017-07-24T05:42:02.400Z,43.5
2017-07-24T05:43:04.419Z,43.6
2017-07-24T05:44:04.645Z,43.7
2017-07-24T05:45:02.651Z,43.7
2017-07-24T05:46:05.963Z,43.8
2017-07-24T05:47:04.548Z,44
2017-07-24T05:48:02.953Z,44
2017-07-24T05:49:02.821Z,44
2017-07-24T05:50:03.263Z,44.1
2017-07-24T05:51:02.950Z,44.1
2017-07-24T05:52:05.162Z,44.3
2017-07-24T05:53:05.015Z,44.4
2017-07-24T05:54:06.619Z,44.5
2017-07-24T05:55:05.470Z,44.5
2017-07-24T05:56:03.342Z,44.6
2017-07-24T05:57:08.382Z,44.6
2017-07-24T05:58:03.521Z,44.4
2017-07-24T05:59:06.957Z,44.8
2017-07-24T06:00:06.857Z,45
2017-07-24T06:01:05.365Z,45
2017-07-24T06:02:04.343Z,44.6
2017-07-24T06:03:03.598Z,44.3
2017-07-24T06:04:07.217Z,44.5
2017-07-24T06:05:03.761Z,45.1
2017-07-24T06:06:03.765Z,45.5
2017-07-24T06:07:03.849Z,45.3
2017-07-24T06:08:05.996Z,45.3
2017-07-24T06:09:05.769Z,45.4
2017-07-24T06:10:07.484Z,45.9
2017-07-24T06:11:08.220Z,46.1
2017-07-24T06:12:04.084Z,45.9
2017-07-24T06:13:07.476Z,45.9
2017-07-24T06:14:06.140Z,46.5
2017-07-24T06:15:04.510Z,46.3
2017-07-24T06:16:04.276Z,46.4
2017-07-24T06:17:06.445Z,46.6
2017-07-24T06:18:04.576Z,46.4
2017-07-24T06:19:07.675Z,46.6
2017-07-24T06:20:06.661Z,46.8
2017-07-24T06:21:06.501Z,46.4
2017-07-24T06:22:07.994Z,46.5
2017-07-24T06:23:08.188Z,46.7
2017-07-24T06:24:04.747Z,46.4
2017-07-24T06:25:06.928Z,46.1
2017-07-24T06:26:04.825Z,46
2017-07-24T06:27:05.068Z,46.1
2017-07-24T06:28:09.190Z,46
2017-07-24T06:29:05.657Z,45.7
2017-07-24T06:30:05.122Z,45.8
2017-07-24T06:31:05.350Z,45.9
2017-07-24T06:32:05.372Z,46.1
2017-07-24T06:33:05.555Z,46
2017-07-24T06:34:08.663Z,45.9
2017-07-24T06:35:07.311Z,45.8
2017-07-24T06:36:07.301Z,45.6
2017-07-24T06:37:05.468Z,45.7
2017-07-24T06:38:07.591Z,45.7
2017-07-24T06:39:05.594Z,45.5
2017-07-24T06:40:07.592Z,45.5
2017-07-24T06:41:05.721Z,45.3
2017-07-24T06:42:05.633Z,45
2017-07-24T06:43:09.237Z,44.8
2017-07-24T06:44:10.046Z,45.2
2017-07-24T06:45:05.997Z,45.4
2017-07-24T06:46:07.768Z,45.7
2017-07-24T06:47:07.850Z,45.9
2017-07-24T06:48:08.183Z,46.2
2017-07-24T06:49:06.267Z,46.4
2017-07-24T06:50:08.218Z,46.7
2017-07-24T06:51:06.861Z,46.8
2017-07-24T06:52:07.772Z,46.5
2017-07-24T06:53:06.564Z,46.8
2017-07-24T06:54:06.392Z,46.5
2017-07-24T06:55:10.614Z,46.5
2017-07-24T06:56:08.969Z,46.8
2017-07-24T06:57:07.552Z,46.9
2017-07-24T06:58:09.500Z,47
2017-07-24T06:59:06.903Z,47.1
2017-07-24T07:00:06.940Z,47.1
2017-07-24T07:01:11.286Z,47
2017-07-24T07:02:10.800Z,46.5
2017-07-24T07:03:07.788Z,46.4
2017-07-24T07:04:10.607Z,46.1
2017-07-24T07:05:07.321Z,45.9
2017-07-24T07:06:07.934Z,45.6
2017-07-24T07:07:07.141Z,45.8
2017-07-24T07:08:09.364Z,45.8
2017-07-24T07:09:10.582Z,45.5
2017-07-24T07:10:07.591Z,45.5
2017-07-24T07:11:09.521Z,45.4
2017-07-24T07:12:07.466Z,45.1
2017-07-24T07:13:08.251Z,45
2017-07-24T07:14:08.593Z,45.2
2017-07-24T07:15:10.455Z,45.7
2017-07-24T07:16:08.445Z,46.1
2017-07-24T07:17:11.019Z,46.2
2017-07-24T07:18:11.065Z,46.1
2017-07-24T07:19:11.107Z,46.1
2017-07-24T07:20:12.435Z,46.3
2017-07-24T07:21:08.118Z,46.9
2017-07-24T07:22:08.190Z,47.2
2017-07-24T07:23:08.267Z,47.3
2017-07-24T07:24:08.139Z,47.2
2017-07-24T07:25:10.087Z,47.5
2017-07-24T07:26:13.186Z,47.5
2017-07-24T07:27:11.739Z,47.5
2017-07-24T07:28:08.328Z,47.3
2017-07-24T07:29:10.225Z,47
2017-07-24T07:30:08.434Z,47.1
2017-07-24T07:31:11.836Z,47.3
2017-07-24T07:32:11.000Z,47.6
2017-07-24T07:33:10.465Z,47.9
2017-07-24T07:34:10.788Z,48.3
2017-07-24T07:35:08.890Z,48.7
2017-07-24T07:36:12.269Z,48.6
2017-07-24T07:37:08.760Z,48.9
2017-07-24T07:38:09.061Z,49.5
2017-07-24T07:39:10.964Z,49.5
2017-07-24T07:40:08.843Z,49.5
2017-07-24T07:41:09.070Z,49.5
2017-07-24T07:42:10.849Z,49.7
2017-07-24T07:43:09.198Z,49.9
2017-07-24T07:44:11.432Z,50
2017-07-24T07:45:11.297Z,50.2
2017-07-24T07:46:12.715Z,50
2017-07-24T07:47:12.726Z,50.2
2017-07-24T07:48:09.433Z,50.2
2017-07-24T07:49:09.483Z,50.4
2017-07-24T07:50:09.597Z,50.4
2017-07-24T07:51:09.597Z,50.5
2017-07-24T07:52:09.642Z,50.6
2017-07-24T07:53:09.697Z,50.8
2017-07-24T07:54:11.477Z,50.9
2017-07-24T07:55:11.749Z,50.7
2017-07-24T07:56:10.141Z,50.7
2017-07-24T07:57:10.565Z,50.7
2017-07-24T07:58:09.896Z,50.8
2017-07-24T07:59:13.158Z,50.9
2017-07-24T08:00:13.253Z,51.1
2017-07-24T08:01:13.359Z,50.9
2017-07-24T08:02:10.346Z,50.9
2017-07-24T08:03:13.532Z,51.1
2017-07-24T08:04:13.373Z,51.2
2017-07-24T08:05:13.672Z,51.2
2017-07-24T08:06:11.446Z,51
2017-07-24T08:07:13.557Z,51.1
2017-07-24T08:08:10.792Z,50.9
2017-07-24T08:09:12.252Z,50.7
2017-07-24T08:10:10.457Z,50.7
2017-07-24T08:11:14.018Z,50.6
2017-07-24T08:12:11.099Z,50.6
2017-07-24T08:13:14.626Z,50.8
2017-07-24T08:14:12.931Z,50.8
2017-07-24T08:15:10.884Z,50.9
2017-07-24T08:16:11.190Z,51
2017-07-24T08:17:13.067Z,51.2
2017-07-24T08:18:14.300Z,51.2
2017-07-24T08:19:13.098Z,50.9
2017-07-24T08:20:12.259Z,51.1
2017-07-24T08:21:11.180Z,51.1
2017-07-24T08:22:11.697Z,51.4
2017-07-24T08:23:11.375Z,51.9
2017-07-24T08:24:12.697Z,52.1
2017-07-24T08:25:15.421Z,52.1
2017-07-24T08:26:15.179Z,52.4
2017-07-24T08:27:11.252Z,52.2
2017-07-24T08:28:11.466Z,52.2
2017-07-24T08:29:12.152Z,52.4
2017-07-24T08:30:13.507Z,52.5
2017-07-24T08:31:14.092Z,52.4
2017-07-24T08:32:11.974Z,52.5
2017-07-24T08:33:13.595Z,52.9
2017-07-24T08:34:19.315Z,53.1
2017-07-24T08:35:12.025Z,53.2
2017-07-24T08:36:13.889Z,53.3
2017-07-24T08:37:12.422Z,53.3
2017-07-24T08:38:15.551Z,53.2
2017-07-24T08:39:12.544Z,53.2
2017-07-24T08:40:14.317Z,52.9
2017-07-24T08:41:14.398Z,52.5
2017-07-24T08:42:15.556Z,52.4
2017-07-24T08:43:12.302Z,52.2
2017-07-24T08:44:13.291Z,52
2017-07-24T08:45:12.400Z,51.8
2017-07-24T08:46:13.067Z,51.7
2017-07-24T08:47:14.686Z,51.4
2017-07-24T08:48:14.478Z,51.2
2017-07-24T08:49:13.207Z,50.9
2017-07-24T08:50:13.096Z,50.5
2017-07-24T08:51:12.712Z,50.3
2017-07-24T08:52:14.647Z,49.9
2017-07-24T08:53:13.022Z,49.8
2017-07-24T08:54:13.073Z,49.9
2017-07-24T08:55:14.469Z,49.5
2017-07-24T08:56:15.176Z,49.5
2017-07-24T08:57:15.210Z,49.6
2017-07-24T08:58:17.334Z,49.4
2017-07-24T08:59:15.191Z,49.5
2017-07-24T09:00:14.319Z,49.3
2017-07-24T09:01:17.096Z,49.1
2017-07-24T09:02:16.179Z,49.1
2017-07-24T09:03:14.949Z,48.9
2017-07-24T09:04:15.405Z,48.8
2017-07-24T09:05:17.229Z,48.6
2017-07-24T09:06:17.320Z,48.3
2017-07-24T09:07:15.573Z,48.3
2017-07-24T09:08:21.439Z,48.1
2017-07-24T09:09:15.050Z,48.1
2017-07-24T09:10:18.510Z,48.1
2017-07-24T09:11:14.335Z,48.1
2017-07-24T09:12:16.228Z,48.1
2017-07-24T09:13:17.138Z,48
2017-07-24T09:14:17.432Z,47.9
2017-07-24T09:15:15.914Z,48
2017-07-24T09:16:18.352Z,48.1
2017-07-24T09:17:15.996Z,48.1
2017-07-24T09:18:16.722Z,47.8
2017-07-24T09:19:16.117Z,47.4
2017-07-24T09:20:14.441Z,47.3
2017-07-24T09:21:13.995Z,47.1
2017-07-24T09:22:17.431Z,46.8
2017-07-24T09:23:17.685Z,46.6
2017-07-24T09:24:14.997Z,46.3
2017-07-24T09:25:14.892Z,45.8
2017-07-24T09:26:14.804Z,45.7
2017-07-24T09:27:16.386Z,45.5
2017-07-24T09:28:17.913Z,45.2
2017-07-24T09:30:18.033Z,44.4
2017-07-24T09:31:15.520Z,44.2
2017-07-24T09:32:15.897Z,44
2017-07-24T09:33:18.301Z,44
2017-07-24T09:34:15.045Z,43.8
2017-07-24T09:35:15.587Z,43.3
2017-07-24T09:36:16.458Z,42.8
2017-07-24T09:37:16.970Z,42.6
2017-07-24T09:38:16.058Z,42.7
2017-07-24T09:39:14.907Z,42.7
2017-07-24T09:40:15.020Z,42.7
2017-07-24T09:41:14.989Z,42.8
2017-07-24T09:42:15.044Z,42.9
2017-07-24T09:43:16.974Z,42.7
2017-07-24T09:44:15.311Z,42.8
2017-07-24T09:45:18.597Z,43
2017-07-24T09:46:15.767Z,43
2017-07-24T09:47:16.925Z,42.9
2017-07-24T09:48:15.776Z,43.1
2017-07-24T09:49:15.617Z,43.1
2017-07-24T09:50:18.805Z,43.1
2017-07-24T09:51:17.414Z,42.7
2017-07-24T09:52:18.062Z,42.6
2017-07-24T09:53:17.755Z,42.5
2017-07-24T09:54:16.531Z,42.6
2017-07-24T09:55:18.493Z,42.6
2017-07-24T09:56:19.611Z,42.6
2017-07-24T09:57:18.643Z,42.7
2017-07-24T09:58:19.245Z,42.9
2017-07-24T09:59:16.070Z,43.1
2017-07-24T10:00:19.617Z,43.4
2017-07-24T10:01:16.307Z,43.4
2017-07-24T10:02:20.779Z,43.4
2017-07-24T10:03:17.560Z,43.4
2017-07-24T10:04:22.720Z,43.5
2017-07-24T10:05:17.145Z,43.3
2017-07-24T10:06:17.942Z,43.3
2017-07-24T10:07:20.011Z,43.3
2017-07-24T10:08:18.470Z,43.4
2017-07-24T10:09:19.802Z,43.5
2017-07-24T10:10:20.626Z,43.6
2017-07-24T10:11:21.382Z,43.5
2017-07-24T10:12:22.812Z,43.3
2017-07-24T10:13:19.674Z,43.2
2017-07-24T10:14:21.067Z,43
2017-07-24T10:15:17.527Z,42.5
2017-07-24T10:16:19.606Z,42.4
2017-07-24T10:17:18.164Z,42.4
2017-07-24T10:18:20.941Z,42.3
2017-07-24T10:19:19.537Z,41.9
2017-07-24T10:20:22.527Z,41.9
2017-07-24T10:21:20.169Z,41.7
2017-07-24T10:22:19.957Z,41.2
2017-07-24T10:23:25.839Z,41.2
2017-07-24T10:24:23.618Z,41.2
2017-07-24T10:25:24.550Z,41
2017-07-24T10:26:21.121Z,41
2017-07-24T10:27:17.763Z,40.6
2017-07-24T10:28:19.707Z,40.3
2017-07-24T10:29:17.832Z,40.3
2017-07-24T10:30:21.758Z,40.4
2017-07-24T10:31:17.653Z,40.4
2017-07-24T10:32:21.322Z,40.3
2017-07-24T10:33:21.273Z,40.5
2017-07-24T10:34:19.793Z,40.6
2017-07-24T10:35:21.095Z,40.8
2017-07-24T10:36:21.291Z,40.8
2017-07-24T10:37:20.416Z,40.7
2017-07-24T10:38:18.211Z,40.5
2017-07-24T10:39:18.122Z,40.4
2017-07-24T10:40:20.598Z,40.2
2017-07-24T10:41:21.587Z,40.2
2017-07-24T10:42:19.928Z,40.1
2017-07-24T10:43:18.303Z,40.1
2017-07-24T10:44:18.663Z,40.2
2017-07-24T10:45:18.304Z,40.1
2017-07-24T10:46:18.390Z,40.3
2017-07-24T10:47:18.266Z,40.4
2017-07-24T10:48:19.145Z,40.4
2017-07-24T10:49:20.256Z,40.4
2017-07-24T10:50:20.354Z,40.3
2017-07-24T10:51:21.816Z,39.9
2017-07-24T10:52:20.481Z,39.9
2017-07-24T10:53:21.925Z,40.3
2017-07-24T10:54:18.643Z,40.7
2017-07-24T10:55:22.260Z,40.8
2017-07-24T10:56:22.128Z,40.7
2017-07-24T10:57:18.999Z,40.7
2017-07-24T10:58:22.208Z,40.6
2017-07-24T10:59:19.150Z,40.5
2017-07-24T11:00:22.651Z,40.4
2017-07-24T11:01:19.145Z,40.3
2017-07-24T11:02:21.309Z,40.2
2017-07-24T11:03:20.033Z,40.1
2017-07-24T11:04:21.336Z,39.9
2017-07-24T11:05:19.522Z,39.8
2017-07-24T11:06:19.960Z,39.7
2017-07-24T11:07:19.512Z,39.6
2017-07-24T11:08:22.035Z,39.4
2017-07-24T11:09:19.493Z,39.3
2017-07-24T11:10:20.325Z,39.2
2017-07-24T11:11:21.480Z,39.1
2017-07-24T11:12:23.872Z,39.1
2017-07-24T11:13:19.641Z,39
2017-07-24T11:14:19.624Z,39
2017-07-24T11:15:21.619Z,38.9
2017-07-24T11:16:23.299Z,38.8
2017-07-24T11:17:22.426Z,38.7
2017-07-24T11:18:23.106Z,38.6
2017-07-24T11:19:20.858Z,38.6
2017-07-24T11:20:19.899Z,38.5
2017-07-24T11:21:20.119Z,38.5
2017-07-24T11:22:22.060Z,38.4
2017-07-24T11:23:22.103Z,38.2
2017-07-24T11:24:23.332Z,38.1
2017-07-24T11:25:20.281Z,38
2017-07-24T11:26:22.105Z,38
2017-07-24T11:27:20.333Z,38
2017-07-24T11:28:20.351Z,38
2017-07-24T11:29:22.112Z,38
2017-07-24T11:30:22.354Z,37.9
2017-07-24T11:31:21.095Z,37.8
2017-07-24T11:32:20.370Z,37.8
2017-07-24T11:33:23.700Z,37.7
2017-07-24T11:34:23.752Z,37.6
2017-07-24T11:35:20.677Z,37.5
2017-07-24T11:36:20.517Z,37.4
2017-07-24T11:37:22.537Z,37.4
2017-07-24T11:38:24.195Z,37.4
2017-07-24T11:39:23.105Z,37.4
2017-07-24T11:40:21.617Z,37.4
2017-07-24T11:41:22.719Z,37.4
2017-07-24T11:42:21.543Z,37.4
2017-07-24T11:43:24.476Z,37.4
2017-07-24T11:44:23.123Z,37.4
2017-07-24T11:45:23.029Z,37.3
2017-07-24T11:46:22.593Z,37.3
2017-07-24T11:47:21.370Z,37.3
2017-07-24T11:48:21.167Z,37.4
2017-07-24T11:49:25.373Z,37.5
2017-07-24T11:50:23.403Z,37.5
2017-07-24T11:51:23.101Z,37.7
2017-07-24T11:52:24.834Z,37.8
2017-07-24T11:53:23.445Z,37.8
2017-07-24T11:54:23.299Z,38
2017-07-24T11:55:26.434Z,38
2017-07-24T11:56:24.211Z,38.1
2017-07-24T11:57:21.553Z,38.1
2017-07-24T11:58:23.728Z,38.2
2017-07-24T11:59:24.244Z,38.2
2017-07-24T12:00:23.572Z,38.3
2017-07-24T12:01:22.251Z,38.3
2017-07-24T12:02:23.909Z,38.1
2017-07-24T12:03:26.477Z,38
2017-07-24T12:04:25.316Z,37.9
2017-07-24T12:05:22.068Z,37.7
2017-07-24T12:06:24.261Z,37.6
2017-07-24T12:07:22.714Z,37.5
2017-07-24T12:08:22.372Z,37.5
2017-07-24T12:09:22.480Z,37.5
2017-07-24T12:10:24.394Z,37.5
2017-07-24T12:11:27.699Z,37.5
2017-07-24T12:12:22.361Z,37.6
2017-07-24T12:13:26.025Z,37.5
2017-07-24T12:14:22.468Z,37.5
2017-07-24T12:15:26.058Z,37.5
2017-07-24T12:16:22.623Z,37.4
2017-07-24T12:17:22.536Z,37.5
2017-07-24T12:18:22.760Z,37.6
2017-07-24T12:19:23.839Z,37.5
2017-07-24T12:20:25.555Z,37.5
2017-07-24T12:21:26.216Z,37.5
2017-07-24T12:22:25.704Z,37.5
2017-07-24T12:23:28.283Z,37.5
2017-07-24T12:24:23.047Z,37.5
2017-07-24T12:25:26.775Z,37.6
2017-07-24T12:26:23.343Z,37.5
2017-07-24T12:27:26.727Z,37.4
2017-07-24T12:28:25.124Z,37.2
2017-07-24T12:29:26.028Z,36.9
2017-07-24T12:30:27.143Z,36.7
2017-07-24T12:31:26.227Z,36.5
2017-07-24T12:32:24.385Z,36.4
2017-07-24T12:33:24.008Z,36.2
2017-07-24T12:34:25.585Z,36.2
2017-07-24T12:35:24.194Z,36.2
2017-07-24T12:36:27.536Z,36.2
2017-07-24T12:37:24.061Z,36.2
2017-07-24T12:38:25.090Z,36.3
2017-07-24T12:39:23.579Z,36.3
2017-07-24T12:40:23.713Z,36.2
2017-07-24T12:41:27.697Z,36.1
2017-07-24T12:42:25.693Z,36.2
2017-07-24T12:43:25.300Z,36.1
2017-07-24T12:44:25.969Z,36.1
2017-07-24T12:45:24.003Z,36.1
2017-07-24T12:46:23.865Z,36.2
2017-07-24T12:47:27.385Z,36.2
2017-07-24T12:48:27.048Z,36.4
2017-07-24T12:49:25.079Z,36.4
2017-07-24T12:50:25.844Z,36.4
2017-07-24T12:51:25.589Z,36.4
2017-07-24T12:52:24.106Z,36.4
2017-07-24T12:53:28.921Z,36.3
2017-07-24T12:54:24.437Z,36.3
2017-07-24T12:55:25.212Z,36.3
2017-07-24T12:56:24.575Z,36.4
2017-07-24T12:57:27.406Z,36.4
2017-07-24T12:58:24.486Z,36.4
2017-07-24T12:59:25.134Z,36.5
2017-07-24T13:00:24.517Z,36.6
2017-07-24T13:01:25.706Z,36.7
2017-07-24T13:02:24.623Z,36.7
2017-07-24T13:03:28.935Z,36.7
2017-07-24T13:04:26.925Z,36.7
2017-07-24T13:06:25.132Z,36.8
2017-07-24T13:07:29.573Z,36.8
2017-07-24T13:08:28.646Z,36.9
2017-07-24T13:09:28.627Z,36.9
2017-07-24T13:12:21.608Z,37
2017-07-24T13:13:25.267Z,37
2017-07-24T13:14:20.930Z,37
2017-07-24T13:15:23.150Z,37
2017-07-24T13:16:21.215Z,37.1
2017-07-24T13:17:23.186Z,37.1
2017-07-24T13:18:24.516Z,37.1
2017-07-24T13:19:24.885Z,37.1
2017-07-24T13:20:23.217Z,37.1
2017-07-24T13:21:24.721Z,37
2017-07-24T13:22:24.953Z,36.9
2017-07-24T13:23:25.031Z,36.9
2017-07-24T13:24:21.536Z,36.9
2017-07-24T13:25:21.938Z,36.8
2017-07-24T13:26:25.033Z,36.7
2017-07-24T13:27:22.588Z,36.6